Terminal Aerodrome Forecast
Issued by NWS Rapid City, SD

Home | Current Version | Previous Version | Text Only | Print | Product List | Glossary On
Versions: 1 2 3 4 5 6 7 8 9 10 11 12 13 14 15 16 17
000
FTUS43 KUNR 060520
TAFRAP
TAF
KRAP 060520Z 0606/0706 15010KT P6SM OVC040
      TEMPO 0606/0610 -SHRA OVC025
     FM061000 14007KT 5SM -RA BR OVC012=

USA.gov is the U.S. government's official web portal to all federal, state and local government web resources and services.